sensor_id;sensor_type;location;lat;lon;timestamp;pressure;altitude;pressure_sealevel;temperature;humidity
33486;BME280;19824;52.098;5.004;2023-03-03T06:02:42;102665.47;;;4.17;92.82
33486;BME280;19824;52.098;5.004;2023-03-03T06:05:26;102664.53;;;4.18;92.90
33486;BME280;19824;52.098;5.004;2023-03-03T06:07:57;102657.44;;;4.20;92.15
33486;BME280;19824;52.098;5.004;2023-03-03T06:10:34;102667.09;;;4.20;92.99
33486;BME280;19824;52.098;5.004;2023-03-03T06:13:05;102661.72;;;4.23;92.31
33486;BME280;19824;52.098;5.004;2023-03-03T06:15:42;102670.50;;;4.23;92.51
33486;BME280;19824;52.098;5.004;2023-03-03T06:18:16;102671.44;;;4.22;92.53
33486;BME280;19824;52.098;5.004;2023-03-03T06:20:54;102677.50;;;4.24;93.14
33486;BME280;19824;52.098;5.004;2023-03-03T06:23:25;102679.25;;;4.24;92.88
33486;BME280;19824;52.098;5.004;2023-03-03T06:26:04;102683.84;;;4.19;93.62
33486;BME280;19824;52.098;5.004;2023-03-03T06:28:35;102685.34;;;4.26;92.64
33486;BME280;19824;52.098;5.004;2023-03-03T06:31:12;102691.41;;;4.28;93.04
33486;BME280;19824;52.098;5.004;2023-03-03T06:33:45;102683.50;;;4.28;92.62
33486;BME280;19824;52.098;5.004;2023-03-03T06:38:55;102675.41;;;4.32;93.01
33486;BME280;19824;52.098;5.004;2023-03-03T06:41:25;102686.66;;;4.37;92.35
33486;BME280;19824;52.098;5.004;2023-03-03T06:44:02;102689.03;;;4.43;92.75
33486;BME280;19824;52.098;5.004;2023-03-03T06:46:32;102696.00;;;4.46;92.72
33486;BME280;19824;52.098;5.004;2023-03-03T06:49:12;102703.84;;;4.47;92.76
33486;BME280;19824;52.098;5.004;2023-03-03T06:51:50;102697.88;;;4.42;93.19
33486;BME280;19824;52.098;5.004;2023-03-03T06:54:26;102709.09;;;4.47;92.09
33486;BME280;19824;52.098;5.004;2023-03-03T06:57:16;102706.47;;;4.47;92.52
33486;BME280;19824;52.098;5.004;2023-03-03T06:59:51;102712.72;;;4.45;93.20
33486;BME280;19824;52.098;5.004;2023-03-03T07:02:28;102716.22;;;4.45;92.68
33486;BME280;19824;52.098;5.004;2023-03-03T07:05:06;102717.81;;;4.49;93.27
33486;BME280;19824;52.098;5.004;2023-03-03T07:07:46;102719.44;;;4.53;92.99
33486;BME280;19824;52.098;5.004;2023-03-03T07:10:22;102715.06;;;4.52;92.98
33486;BME280;19824;52.098;5.004;2023-03-03T07:13:17;102721.19;;;4.53;93.39
33486;BME280;19824;52.098;5.004;2023-03-03T07:16:01;102720.91;;;4.60;92.11
33486;BME280;19824;52.098;5.004;2023-03-03T07:18:41;102727.66;;;4.67;92.68
33486;BME280;19824;52.098;5.004;2023-03-03T07:21:30;102729.50;;;4.65;93.20
33486;BME280;19824;52.098;5.004;2023-03-03T07:24:24;102729.38;;;4.68;92.60
33486;BME280;19824;52.098;5.004;2023-03-03T07:27:10;102732.63;;;4.75;93.14
33486;BME280;19824;52.098;5.004;2023-03-03T07:29:50;102745.66;;;4.79;93.36
33486;BME280;19824;52.098;5.004;2023-03-03T07:32:26;102735.81;;;4.82;92.74
33486;BME280;19824;52.098;5.004;2023-03-03T07:35:28;102745.53;;;4.82;92.98
33486;BME280;19824;52.098;5.004;2023-03-03T07:38:24;102747.13;;;4.86;92.43
33486;BME280;19824;52.098;5.004;2023-03-03T07:41:11;102747.19;;;4.84;92.89
33486;BME280;19824;52.098;5.004;2023-03-03T07:43:48;102752.97;;;4.94;92.42
33486;BME280;19824;52.098;5.004;2023-03-03T07:46:30;102751.00;;;4.99;92.71
33486;BME280;19824;52.098;5.004;2023-03-03T07:49:20;102752.56;;;5.03;92.89
33486;BME280;19824;52.098;5.004;2023-03-03T07:51:59;102746.25;;;5.07;92.74
33486;BME280;19824;52.098;5.004;2023-03-03T07:54:36;102756.63;;;5.11;92.60
33486;BME280;19824;52.098;5.004;2023-03-03T07:57:22;102759.34;;;5.10;92.67
33486;BME280;19824;52.098;5.004;2023-03-03T07:59:59;102767.56;;;5.24;92.58
33486;BME280;19824;52.098;5.004;2023-03-03T08:02:42;102770.94;;;5.27;92.31
33486;BME280;19824;52.098;5.004;2023-03-03T08:05:33;102770.88;;;5.29;92.82
33486;BME280;19824;52.098;5.004;2023-03-03T08:08:27;102777.13;;;5.26;92.42
33486;BME280;19824;52.098;5.004;2023-03-03T08:11:02;102774.44;;;5.28;92.64
33486;BME280;19824;52.098;5.004;2023-03-03T08:13:42;102777.09;;;5.28;92.53
33486;BME280;19824;52.098;5.004;2023-03-03T08:16:35;102781.13;;;5.36;92.14
33486;BME280;19824;52.098;5.004;2023-03-03T08:19:14;102788.78;;;5.42;91.97
33486;BME280;19824;52.098;5.004;2023-03-03T08:21:46;102776.25;;;5.47;92.28
33486;BME280;19824;52.098;5.004;2023-03-03T08:24:23;102786.06;;;5.65;92.19
33486;BME280;19824;52.098;5.004;2023-03-03T08:26:58;102791.25;;;5.67;92.73
33486;BME280;19824;52.098;5.004;2023-03-03T08:29:35;102792.06;;;5.69;92.85
33486;BME280;19824;52.098;5.004;2023-03-03T08:32:05;102794.38;;;5.76;92.46
33486;BME280;19824;52.098;5.004;2023-03-03T08:34:43;102787.97;;;5.83;92.41
33486;BME280;19824;52.098;5.004;2023-03-03T08:37:20;102785.91;;;5.89;92.59
33486;BME280;19824;52.098;5.004;2023-03-03T08:39:50;102794.75;;;5.88;92.49
33486;BME280;19824;52.098;5.004;2023-03-03T08:42:30;102794.47;;;5.94;92.34
33486;BME280;19824;52.098;5.004;2023-03-03T08:45:00;102797.66;;;6.02;92.15
33486;BME280;19824;52.098;5.004;2023-03-03T08:47:37;102805.25;;;6.10;92.42
33486;BME280;19824;52.098;5.004;2023-03-03T08:50:09;102798.84;;;5.95;91.76
33486;BME280;19824;52.098;5.004;2023-03-03T08:52:46;102805.31;;;6.28;92.02
33486;BME280;19824;52.098;5.004;2023-03-03T08:55:17;102809.28;;;6.38;92.00
33486;BME280;19824;52.098;5.004;2023-03-03T08:57:57;102804.63;;;6.43;91.48
33486;BME280;19824;52.098;5.004;2023-03-03T09:00:27;102808.00;;;6.47;91.04
33486;BME280;19824;52.098;5.004;2023-03-03T09:03:05;102805.94;;;6.53;91.38
33486;BME280;19824;52.098;5.004;2023-03-03T09:05:37;102814.59;;;6.75;90.70
33486;BME280;19824;52.098;5.004;2023-03-03T09:08:15;102801.06;;;6.99;91.16
33486;BME280;19824;52.098;5.004;2023-03-03T09:10:46;102804.19;;;7.26;90.59
33486;BME280;19824;52.098;5.004;2023-03-03T09:13:24;102798.03;;;7.61;91.46
33486;BME280;19824;52.098;5.004;2023-03-03T09:16:01;102801.97;;;8.03;90.66
33486;BME280;19824;52.098;5.004;2023-03-03T09:18:38;102784.75;;;8.76;89.99
33486;BME280;19824;52.098;5.004;2023-03-03T09:21:21;102794.38;;;9.09;87.17
33486;BME280;19824;52.098;5.004;2023-03-03T09:23:55;102783.44;;;9.29;86.78
33486;BME280;19824;52.098;5.004;2023-03-03T09:26:43;102789.66;;;9.30;85.93
33486;BME280;19824;52.098;5.004;2023-03-03T09:29:25;102789.13;;;9.23;85.08
33486;BME280;19824;52.098;5.004;2023-03-03T09:32:23;102792.22;;;9.00;82.86
33486;BME280;19824;52.098;5.004;2023-03-03T09:34:55;102788.22;;;9.54;85.45
33486;BME280;19824;52.098;5.004;2023-03-03T09:37:36;102789.97;;;10.41;83.81
33486;BME280;19824;52.098;5.004;2023-03-03T09:40:41;102785.50;;;11.10;76.21
33486;BME280;19824;52.098;5.004;2023-03-03T09:43:26;102780.53;;;12.09;80.70
33486;BME280;19824;52.098;5.004;2023-03-03T09:46:24;102781.78;;;12.54;72.65
33486;BME280;19824;52.098;5.004;2023-03-03T09:49:10;102782.72;;;12.90;76.53
33486;BME280;19824;52.098;5.004;2023-03-03T09:52:20;102775.88;;;12.73;72.03
33486;BME280;19824;52.098;5.004;2023-03-03T09:55:10;102778.34;;;13.12;72.58
33486;BME280;19824;52.098;5.004;2023-03-03T09:58:10;102785.69;;;13.34;69.08
33486;BME280;19824;52.098;5.004;2023-03-03T10:00:58;102790.34;;;13.43;70.40
33486;BME280;19824;52.098;5.004;2023-03-03T10:07:00;102784.78;;;14.14;66.63
33486;BME280;19824;52.098;5.004;2023-03-03T10:10:02;102785.44;;;14.40;63.16
33486;BME280;19824;52.098;5.004;2023-03-03T10:12:49;102784.00;;;14.79;63.02
33486;BME280;19824;52.098;5.004;2023-03-03T10:15:31;102778.38;;;14.93;62.71
33486;BME280;19824;52.098;5.004;2023-03-03T10:18:27;102783.63;;;14.95;58.40
33486;BME280;19824;52.098;5.004;2023-03-03T10:21:10;102785.09;;;14.66;59.94
33486;BME280;19824;52.098;5.004;2023-03-03T10:23:55;102780.94;;;14.62;59.50
33486;BME280;19824;52.098;5.004;2023-03-03T10:26:50;102788.03;;;14.41;56.72
33486;BME280;19824;52.098;5.004;2023-03-03T10:29:49;102782.41;;;14.66;58.23
33486;BME280;19824;52.098;5.004;2023-03-03T10:32:42;102800.22;;;14.67;57.35
33486;BME280;19824;52.098;5.004;2023-03-03T10:35:31;102777.53;;;14.60;57.25
33486;BME280;19824;52.098;5.004;2023-03-03T10:38:45;102792.41;;;14.64;57.28
33486;BME280;19824;52.098;5.004;2023-03-03T10:41:48;102795.47;;;14.92;55.93
33486;BME280;19824;52.098;5.004;2023-03-03T10:44:50;102787.78;;;14.77;53.44
33486;BME280;19824;52.098;5.004;2023-03-03T10:47:46;102794.25;;;14.96;54.62
33486;BME280;19824;52.098;5.004;2023-03-03T10:50:33;102787.50;;;15.13;54.45
33486;BME280;19824;52.098;5.004;2023-03-03T10:53:20;102792.88;;;15.13;54.47
33486;BME280;19824;52.098;5.004;2023-03-03T10:56:19;102783.06;;;15.45;54.51
33486;BME280;19824;52.098;5.004;2023-03-03T10:59:03;102786.38;;;15.68;51.84
33486;BME280;19824;52.098;5.004;2023-03-03T11:01:55;102778.00;;;15.82;52.84
33486;BME280;19824;52.098;5.004;2023-03-03T11:04:49;102787.22;;;15.69;52.37
33486;BME280;19824;52.098;5.004;2023-03-03T11:07:37;102790.41;;;15.74;52.07
33486;BME280;19824;52.098;5.004;2023-03-03T11:10:23;102790.50;;;15.41;51.94
33486;BME280;19824;52.098;5.004;2023-03-03T11:13:15;102788.47;;;15.12;52.25
33486;BME280;19824;52.098;5.004;2023-03-03T11:16:16;102786.94;;;14.76;52.49
33486;BME280;19824;52.098;5.004;2023-03-03T11:19:08;102789.47;;;14.78;52.57
33486;BME280;19824;52.098;5.004;2023-03-03T11:21:44;102786.91;;;14.87;53.09
33486;BME280;19824;52.098;5.004;2023-03-03T11:24:40;102785.31;;;15.18;51.74
33486;BME280;19824;52.098;5.004;2023-03-03T11:30:49;102771.19;;;16.19;51.35
33486;BME280;19824;52.098;5.004;2023-03-03T11:33:31;102769.84;;;16.84;50.75
33486;BME280;19824;52.098;5.004;2023-03-03T11:36:14;102770.09;;;17.21;49.16
33486;BME280;19824;52.098;5.004;2023-03-03T11:38:52;102766.59;;;17.30;48.61
33486;BME280;19824;52.098;5.004;2023-03-03T11:41:35;102764.47;;;16.94;48.16
33486;BME280;19824;52.098;5.004;2023-03-03T11:44:18;102763.38;;;16.57;48.35
33486;BME280;19824;52.098;5.004;2023-03-03T11:47:02;102771.19;;;16.19;47.83
33486;BME280;19824;52.098;5.004;2023-03-03T11:49:47;102767.53;;;16.20;48.18
33486;BME280;19824;52.098;5.004;2023-03-03T11:52:26;102779.56;;;15.65;47.93
33486;BME280;19824;52.098;5.004;2023-03-03T11:55:10;102769.63;;;15.45;48.55
33486;BME280;19824;52.098;5.004;2023-03-03T11:57:47;102770.66;;;15.33;48.83
33486;BME280;19824;52.098;5.004;2023-03-03T12:00:29;102765.53;;;15.19;48.75
33486;BME280;19824;52.098;5.004;2023-03-03T12:03:25;102758.59;;;15.27;48.45
33486;BME280;19824;52.098;5.004;2023-03-03T12:06:11;102759.19;;;15.82;49.04
33486;BME280;19824;52.098;5.004;2023-03-03T12:09:23;102745.06;;;16.51;48.30
33486;BME280;19824;52.098;5.004;2023-03-03T12:12:04;102744.66;;;16.95;46.65
33486;BME280;19824;52.098;5.004;2023-03-03T12:14:56;102748.53;;;16.63;47.30
33486;BME280;19824;52.098;5.004;2023-03-03T12:17:49;102756.13;;;15.67;46.70
33486;BME280;19824;52.098;5.004;2023-03-03T12:20:41;102755.78;;;15.07;48.12
33486;BME280;19824;52.098;5.004;2023-03-03T12:23:35;102752.63;;;15.02;48.69
33486;BME280;19824;52.098;5.004;2023-03-03T12:26:19;102745.28;;;15.26;47.98
33486;BME280;19824;52.098;5.004;2023-03-03T12:29:00;102731.34;;;15.21;47.36
33486;BME280;19824;52.098;5.004;2023-03-03T12:31:47;102737.44;;;15.23;47.42
33486;BME280;19824;52.098;5.004;2023-03-03T12:34:28;102732.69;;;15.15;46.77
33486;BME280;19824;52.098;5.004;2023-03-03T12:37:26;102729.81;;;15.07;46.37
33486;BME280;19824;52.098;5.004;2023-03-03T12:40:07;102733.03;;;14.90;47.28
33486;BME280;19824;52.098;5.004;2023-03-03T12:43:06;102732.44;;;14.87;46.75
33486;BME280;19824;52.098;5.004;2023-03-03T12:45:56;102736.59;;;14.58;46.11
33486;BME280;19824;52.098;5.004;2023-03-03T12:48:39;102737.81;;;14.54;46.16
33486;BME280;19824;52.098;5.004;2023-03-03T12:51:29;102740.72;;;14.29;47.33
33486;BME280;19824;52.098;5.004;2023-03-03T12:54:33;102737.25;;;14.05;46.21
33486;BME280;19824;52.098;5.004;2023-03-03T12:57:28;102731.59;;;13.86;46.34
33486;BME280;19824;52.098;5.004;2023-03-03T13:00:39;102728.16;;;13.63;46.66
33486;BME280;19824;52.098;5.004;2023-03-03T13:03:24;102730.34;;;13.68;46.30
33486;BME280;19824;52.098;5.004;2023-03-03T13:06:27;102723.41;;;13.66;46.78
33486;BME280;19824;52.098;5.004;2023-03-03T13:09:10;102722.59;;;13.76;47.04
33486;BME280;19824;52.098;5.004;2023-03-03T13:15:15;102718.97;;;13.88;47.21
33486;BME280;19824;52.098;5.004;2023-03-03T13:18:24;102730.38;;;13.79;47.25
33486;BME280;19824;52.098;5.004;2023-03-03T13:21:02;102721.72;;;13.76;47.17
33486;BME280;19824;52.098;5.004;2023-03-03T13:23:49;102725.94;;;13.67;47.34
33486;BME280;19824;52.098;5.004;2023-03-03T13:26:25;102716.13;;;13.68;47.05
33486;BME280;19824;52.098;5.004;2023-03-03T13:29:13;102715.78;;;13.49;46.84
33486;BME280;19824;52.098;5.004;2023-03-03T13:31:48;102718.44;;;13.38;47.93
33486;BME280;19824;52.098;5.004;2023-03-03T13:34:38;102712.69;;;13.32;47.25
33486;BME280;19824;52.098;5.004;2023-03-03T13:37:18;102715.78;;;13.49;47.29
33486;BME280;19824;52.098;5.004;2023-03-03T13:39:58;102716.94;;;13.58;47.99
33486;BME280;19824;52.098;5.004;2023-03-03T13:42:37;102712.28;;;13.49;47.47
33486;BME280;19824;52.098;5.004;2023-03-03T13:45:22;102712.91;;;13.29;47.34
33486;BME280;19824;52.098;5.004;2023-03-03T13:48:05;102712.19;;;13.03;47.45
33486;BME280;19824;52.098;5.004;2023-03-03T13:50:53;102709.38;;;13.05;48.09
33486;BME280;19824;52.098;5.004;2023-03-03T13:53:36;102709.38;;;13.05;47.84
33486;BME280;19824;52.098;5.004;2023-03-03T13:56:30;102711.34;;;13.03;47.77
33486;BME280;19824;52.098;5.004;2023-03-03T13:59:17;102712.34;;;13.13;48.34
